createdAt,value
2022-10-09T00:02:53.617Z,2.70
2022-10-09T00:05:56.479Z,2.80
2022-10-09T00:09:02.070Z,2.30
2022-10-09T00:12:05.181Z,2.50
2022-10-09T00:15:08.317Z,3.50
2022-10-09T00:18:13.591Z,2.60
2022-10-09T00:21:19.469Z,3.10
2022-10-09T00:24:22.712Z,3.20
2022-10-09T00:27:25.511Z,2.30
2022-10-09T00:30:28.456Z,2.30
2022-10-09T00:33:31.291Z,2.40
2022-10-09T00:36:34.132Z,3.10
2022-10-09T00:39:36.933Z,2.90
2022-10-09T00:42:40.038Z,2.70
2022-10-09T00:45:54.838Z,2.80
2022-10-09T00:49:25.675Z,2.70
2022-10-09T00:52:29.052Z,3.70
2022-10-09T00:55:35.784Z,3.10
2022-10-09T00:58:38.650Z,3.90
2022-10-09T01:01:41.878Z,4.10
2022-10-09T01:04:44.932Z,4.20
2022-10-09T01:08:10.471Z,3.50
2022-10-09T01:11:38.765Z,3.40
2022-10-09T01:14:47.606Z,3.90
2022-10-09T01:18:15.970Z,4.00
2022-10-09T01:21:23.986Z,3.80
2022-10-09T01:24:29.802Z,4.20
2022-10-09T01:27:33.880Z,3.90
2022-10-09T01:30:37.452Z,4.30
2022-10-09T01:33:41.084Z,3.80
2022-10-09T01:36:45.168Z,3.70
2022-10-09T01:39:49.264Z,3.60
2022-10-09T01:42:52.668Z,3.40
2022-10-09T01:46:18.541Z,3.80
2022-10-09T01:49:30.764Z,3.50
2022-10-09T01:52:41.560Z,3.60
2022-10-09T01:56:03.322Z,3.20
2022-10-09T01:59:15.872Z,3.30
2022-10-09T02:02:20.923Z,3.40
2022-10-09T02:05:27.885Z,3.70
2022-10-09T02:08:33.051Z,3.80
2022-10-09T02:11:36.156Z,3.60
2022-10-09T02:14:39.585Z,3.60
2022-10-09T02:17:47.505Z,4.20
2022-10-09T02:20:54.818Z,4.00
2022-10-09T02:23:58.795Z,3.60
2022-10-09T02:27:02.928Z,4.60
2022-10-09T02:30:08.997Z,5.10
2022-10-09T02:33:11.846Z,5.40
2022-10-09T02:36:14.813Z,6.00
2022-10-09T02:39:17.747Z,5.40
2022-10-09T02:42:20.704Z,6.30
2022-10-09T02:45:23.555Z,6.20
2022-10-09T02:48:26.317Z,5.00
2022-10-09T02:51:29.183Z,5.50
2022-10-09T02:54:32.026Z,5.10
2022-10-09T02:57:34.804Z,4.70
2022-10-09T03:00:39.037Z,4.20
2022-10-09T03:03:42.123Z,4.00
2022-10-09T03:06:44.944Z,3.50
2022-10-09T03:09:47.826Z,3.30
2022-10-09T03:12:50.846Z,3.90
2022-10-09T03:15:54.034Z,4.40
2022-10-09T03:18:58.598Z,4.30
2022-10-09T03:22:01.425Z,4.80
2022-10-09T03:25:04.589Z,4.80
2022-10-09T03:28:07.440Z,4.00
2022-10-09T03:31:22.379Z,3.80
2022-10-09T03:34:33.831Z,3.90
2022-10-09T03:37:36.673Z,3.90
2022-10-09T03:40:39.524Z,3.80
2022-10-09T03:43:42.489Z,3.50
2022-10-09T03:46:45.385Z,3.70
2022-10-09T03:49:48.409Z,3.50
2022-10-09T03:52:51.402Z,3.30
2022-10-09T03:55:54.519Z,3.90
2022-10-09T03:58:57.349Z,4.00
2022-10-09T04:02:00.180Z,4.40
2022-10-09T04:05:03.256Z,4.00
2022-10-09T04:08:06.036Z,4.70
2022-10-09T04:11:08.974Z,5.10
2022-10-09T04:14:11.954Z,4.70
2022-10-09T04:17:14.732Z,6.00
2022-10-09T04:20:18.162Z,5.50
2022-10-09T04:23:23.813Z,5.70
2022-10-09T04:26:26.691Z,5.60
2022-10-09T04:29:29.607Z,5.50
2022-10-09T04:32:32.433Z,6.80
2022-10-09T04:35:35.201Z,6.80
2022-10-09T04:38:38.348Z,5.90
2022-10-09T04:41:41.151Z,5.00
2022-10-09T04:44:43.960Z,4.60
2022-10-09T04:47:46.741Z,5.70
2022-10-09T04:50:49.552Z,4.50
2022-10-09T04:53:52.387Z,4.20
2022-10-09T04:56:55.243Z,3.90
2022-10-09T04:59:58.079Z,4.20
2022-10-09T05:03:00.885Z,4.30
2022-10-09T05:06:05.489Z,5.50
2022-10-09T05:09:08.316Z,5.50
2022-10-09T05:12:11.138Z,5.50
2022-10-09T05:15:13.966Z,5.60
2022-10-09T05:18:16.938Z,7.40
2022-10-09T05:21:20.577Z,6.20
2022-10-09T05:24:23.417Z,5.70
2022-10-09T05:27:26.223Z,5.20
2022-10-09T05:30:29.070Z,6.00
2022-10-09T05:33:32.620Z,5.70
2022-10-09T05:36:35.705Z,4.80
2022-10-09T05:39:39.469Z,4.90
2022-10-09T05:42:42.326Z,5.40
2022-10-09T05:45:45.179Z,5.80
2022-10-09T05:48:53.798Z,5.90
2022-10-09T05:51:56.796Z,4.80
2022-10-09T05:54:59.662Z,5.20
2022-10-09T05:58:02.494Z,5.60
2022-10-09T06:01:05.502Z,6.50
2022-10-09T06:04:12.392Z,6.30
2022-10-09T06:07:15.344Z,5.50
2022-10-09T06:10:18.268Z,6.10
2022-10-09T06:13:21.919Z,5.90
2022-10-09T06:16:28.156Z,5.70
2022-10-09T06:19:31.215Z,5.90
2022-10-09T06:22:34.047Z,5.70
2022-10-09T06:25:36.953Z,5.30
2022-10-09T06:28:40.871Z,6.10
2022-10-09T06:31:43.788Z,5.30
2022-10-09T06:34:46.631Z,5.40
2022-10-09T06:37:49.434Z,5.40
2022-10-09T06:40:52.229Z,5.50
2022-10-09T06:44:01.270Z,4.70
2022-10-09T06:47:04.116Z,4.90
2022-10-09T06:50:07.811Z,5.60
2022-10-09T06:53:10.642Z,4.70
2022-10-09T06:56:14.894Z,4.80
2022-10-09T06:59:17.922Z,5.20
2022-10-09T07:02:20.825Z,5.20
2022-10-09T07:05:23.783Z,4.90
2022-10-09T07:08:26.637Z,4.90
2022-10-09T07:11:43.294Z,4.80
2022-10-09T07:14:46.295Z,5.80
2022-10-09T07:17:49.531Z,5.20
2022-10-09T07:20:52.430Z,5.10
2022-10-09T07:23:55.712Z,5.30
2022-10-09T07:26:58.587Z,5.00
2022-10-09T07:30:01.530Z,5.10
2022-10-09T07:33:04.377Z,5.40
2022-10-09T07:36:08.825Z,4.80
2022-10-09T07:39:11.818Z,5.30
2022-10-09T07:42:14.670Z,4.90
2022-10-09T07:45:17.562Z,4.80
2022-10-09T07:48:20.396Z,4.90
2022-10-09T07:51:28.970Z,5.70
2022-10-09T07:54:31.756Z,5.50
2022-10-09T07:57:34.584Z,5.70
2022-10-09T08:00:37.501Z,5.00
2022-10-09T08:03:40.576Z,5.00
2022-10-09T08:06:43.479Z,5.00
2022-10-09T08:09:46.341Z,4.60
2022-10-09T08:12:49.513Z,4.90
2022-10-09T08:15:52.599Z,4.70
2022-10-09T08:19:00.676Z,5.20
2022-10-09T08:22:04.126Z,4.70
2022-10-09T08:25:07.489Z,4.50
2022-10-09T08:28:10.345Z,4.80
2022-10-09T08:31:15.896Z,5.70
2022-10-09T08:34:18.805Z,4.80
2022-10-09T08:37:21.631Z,4.00
2022-10-09T08:40:49.969Z,3.50
2022-10-09T08:44:02.778Z,3.30
2022-10-09T08:47:08.789Z,4.70
2022-10-09T08:50:18.636Z,4.00
2022-10-09T08:53:42.964Z,5.80
2022-10-09T08:56:47.780Z,3.60
2022-10-09T08:59:51.190Z,3.10
2022-10-09T09:03:17.233Z,3.60
2022-10-09T09:06:38.958Z,3.80
2022-10-09T09:10:03.710Z,3.50
2022-10-09T09:13:14.809Z,3.00
2022-10-09T09:16:55.166Z,2.90
2022-10-09T09:20:15.004Z,2.90
2022-10-09T09:23:20.885Z,3.20
2022-10-09T09:26:24.494Z,2.80
2022-10-09T09:29:29.978Z,2.50
2022-10-09T09:32:33.524Z,3.00
2022-10-09T09:35:50.147Z,2.80
2022-10-09T09:39:40.825Z,3.10
2022-10-09T09:42:20.085Z,2.70
2022-10-09T09:45:26.478Z,2.90
2022-10-09T09:48:34.917Z,3.20
2022-10-09T09:51:37.918Z,3.00
2022-10-09T09:54:48.765Z,2.80
2022-10-09T09:57:51.848Z,2.20
2022-10-09T10:01:03.696Z,2.10
2022-10-09T10:04:20.603Z,2.20
2022-10-09T10:07:32.646Z,1.90
2022-10-09T10:10:35.635Z,2.80
2022-10-09T10:13:47.080Z,2.10
2022-10-09T10:16:52.003Z,2.40
2022-10-09T10:19:54.942Z,2.50
2022-10-09T10:23:00.656Z,2.50
2022-10-09T10:26:12.754Z,2.40
2022-10-09T10:29:25.273Z,1.70
2022-10-09T10:35:55.360Z,1.40
2022-10-09T10:39:09.205Z,1.60
2022-10-09T10:42:19.288Z,1.50
2022-10-09T10:45:29.208Z,1.10
2022-10-09T10:48:39.363Z,1.50
2022-10-09T10:51:51.889Z,1.40
2022-10-09T11:02:04.639Z,1.00
2022-10-09T11:05:45.447Z,1.60
2022-10-09T11:09:14.940Z,1.60
2022-10-09T11:12:54.553Z,1.40
2022-10-09T11:16:17.195Z,1.20
2022-10-09T11:19:26.143Z,1.20
2022-10-09T11:22:57.047Z,1.30
2022-10-09T11:26:15.106Z,1.30
2022-10-09T11:29:24.634Z,1.20
2022-10-09T11:32:36.734Z,1.00
2022-10-09T11:35:47.802Z,1.40
2022-10-09T11:38:59.461Z,1.10
2022-10-09T11:42:02.935Z,2.60
2022-10-09T11:45:21.268Z,1.40
2022-10-09T11:48:47.667Z,1.10
2022-10-09T11:52:03.528Z,1.20
2022-10-09T11:55:25.388Z,1.20
2022-10-09T11:58:28.307Z,1.50
2022-10-09T12:01:42.953Z,1.60
2022-10-09T12:04:54.773Z,1.30
2022-10-09T12:08:19.239Z,1.40
2022-10-09T12:11:24.269Z,1.30
2022-10-09T12:14:30.321Z,1.30
2022-10-09T12:17:35.184Z,1.10
2022-10-09T12:20:39.892Z,1.10
2022-10-09T12:23:42.873Z,1.60
2022-10-09T12:26:47.036Z,1.30
2022-10-09T12:30:07.814Z,1.20
2022-10-09T12:33:45.781Z,1.50
2022-10-09T12:36:48.775Z,1.70
2022-10-09T12:39:51.825Z,1.40
2022-10-09T12:42:57.226Z,1.10
2022-10-09T12:46:00.157Z,1.30
2022-10-09T12:49:06.327Z,1.00
2022-10-09T12:52:15.158Z,0.90
2022-10-09T12:55:27.235Z,1.10
2022-10-09T12:58:36.114Z,1.20
2022-10-09T13:01:42.777Z,2.40
2022-10-09T13:05:02.340Z,2.30
2022-10-09T13:08:07.629Z,1.40
2022-10-09T13:11:19.986Z,1.50
2022-10-09T13:14:33.672Z,2.00
2022-10-09T13:17:41.756Z,1.70
2022-10-09T13:20:44.522Z,1.60
2022-10-09T13:23:48.055Z,1.80
2022-10-09T13:26:51.788Z,1.40
2022-10-09T13:29:55.037Z,2.30
2022-10-09T13:32:58.330Z,1.30
2022-10-09T13:36:01.132Z,1.00
2022-10-09T13:39:04.678Z,1.10
2022-10-09T13:42:07.850Z,0.90
2022-10-09T13:45:11.046Z,1.40
2022-10-09T13:48:13.930Z,1.40
2022-10-09T13:51:16.888Z,1.30
2022-10-09T13:54:19.688Z,1.60
2022-10-09T13:57:22.509Z,1.80
2022-10-09T14:00:25.390Z,1.90
2022-10-09T14:03:28.212Z,2.00
2022-10-09T14:06:34.137Z,2.00
2022-10-09T14:09:37.084Z,2.30
2022-10-09T14:12:40.034Z,2.10
2022-10-09T14:15:42.912Z,2.90
2022-10-09T14:18:45.771Z,3.00
2022-10-09T14:21:48.575Z,1.80
2022-10-09T14:24:51.484Z,1.50
2022-10-09T14:27:54.601Z,1.60
2022-10-09T14:30:57.635Z,1.10
2022-10-09T14:34:00.778Z,6.80
2022-10-09T14:37:13.577Z,1.70
2022-10-09T14:40:22.004Z,1.40
2022-10-09T14:43:25.304Z,1.60
2022-10-09T14:46:29.203Z,1.80
2022-10-09T14:49:32.408Z,1.90
2022-10-09T14:52:35.905Z,1.60
2022-10-09T14:55:38.676Z,1.60
2022-10-09T14:58:42.188Z,1.80
2022-10-09T15:01:44.993Z,1.90
2022-10-09T15:04:48.004Z,3.60
2022-10-09T15:07:51.029Z,2.30
2022-10-09T15:10:53.986Z,2.40
2022-10-09T15:13:56.950Z,2.40
2022-10-09T15:17:00.217Z,4.10
2022-10-09T15:20:03.318Z,4.30
2022-10-09T15:23:06.365Z,3.30
2022-10-09T15:26:09.938Z,4.40
2022-10-09T15:29:12.809Z,3.90
2022-10-09T15:32:15.651Z,3.70
2022-10-09T15:35:18.644Z,5.60
2022-10-09T15:38:24.324Z,5.00
2022-10-09T15:41:30.471Z,7.30
2022-10-09T15:44:33.392Z,10.40
2022-10-09T15:47:50.546Z,11.40
2022-10-09T15:50:53.945Z,7.70
2022-10-09T15:53:59.262Z,6.10
2022-10-09T15:57:02.184Z,8.00
2022-10-09T16:00:05.615Z,6.70
2022-10-09T16:03:08.957Z,5.70
2022-10-09T16:06:16.152Z,5.40
2022-10-09T16:09:19.688Z,3.70
2022-10-09T16:12:23.242Z,3.90
2022-10-09T16:15:26.848Z,3.00
2022-10-09T16:18:29.937Z,3.40
2022-10-09T16:21:34.196Z,3.00
2022-10-09T16:24:37.463Z,2.60
2022-10-09T16:27:40.351Z,2.90
2022-10-09T16:30:47.254Z,2.90
2022-10-09T16:33:50.479Z,2.90
2022-10-09T16:36:53.428Z,2.80
2022-10-09T16:39:56.350Z,2.30
2022-10-09T16:43:01.722Z,1.80
2022-10-09T16:46:21.820Z,2.20
2022-10-09T16:49:25.211Z,2.10
2022-10-09T16:52:28.352Z,3.30
2022-10-09T16:55:31.180Z,3.60
2022-10-09T16:58:34.406Z,3.40
2022-10-09T17:01:40.318Z,3.80
2022-10-09T17:04:43.178Z,3.70
2022-10-09T17:07:47.361Z,3.70
2022-10-09T17:10:50.458Z,4.30
2022-10-09T17:13:56.974Z,3.60
2022-10-09T17:17:00.039Z,3.90
2022-10-09T17:20:03.156Z,4.40
2022-10-09T17:23:06.495Z,5.00
2022-10-09T17:26:17.927Z,4.80
2022-10-09T17:29:21.806Z,2.60
2022-10-09T17:32:25.291Z,2.80
2022-10-09T17:35:28.150Z,5.20
2022-10-09T17:38:31.083Z,6.60
2022-10-09T17:41:36.369Z,6.60
2022-10-09T17:44:39.414Z,8.10
2022-10-09T17:47:42.301Z,11.10
2022-10-09T17:50:56.696Z,13.00
2022-10-09T17:54:04.878Z,12.80
2022-10-09T17:57:12.482Z,15.50
2022-10-09T18:00:20.864Z,15.80
2022-10-09T18:03:25.268Z,16.30
2022-10-09T18:06:32.572Z,16.30
2022-10-09T18:09:35.780Z,15.30
2022-10-09T18:12:39.950Z,16.50
2022-10-09T18:15:44.219Z,15.40
2022-10-09T18:18:49.324Z,16.20
2022-10-09T18:22:02.024Z,16.90
2022-10-09T18:25:06.671Z,15.80
2022-10-09T18:28:11.980Z,17.50
2022-10-09T18:31:18.563Z,18.20
2022-10-09T18:34:22.912Z,18.90
2022-10-09T18:37:25.866Z,20.00
2022-10-09T18:40:29.940Z,22.20
2022-10-09T18:43:32.868Z,23.70
2022-10-09T18:46:39.870Z,20.80
2022-10-09T18:49:52.725Z,18.20
2022-10-09T18:53:00.486Z,18.40
2022-10-09T18:56:07.988Z,18.40
2022-10-09T18:59:16.964Z,19.10
2022-10-09T19:02:23.405Z,18.80
2022-10-09T19:05:29.109Z,19.90
2022-10-09T19:08:35.405Z,20.40
2022-10-09T19:11:40.825Z,19.20
2022-10-09T19:14:45.410Z,16.90
2022-10-09T19:17:49.777Z,16.90
2022-10-09T19:20:54.969Z,16.00
2022-10-09T19:24:06.709Z,15.10
2022-10-09T19:27:12.926Z,16.30
2022-10-09T19:30:16.364Z,15.30
2022-10-09T19:33:19.550Z,17.20
2022-10-09T19:36:23.428Z,17.30
2022-10-09T19:39:26.754Z,15.90
2022-10-09T19:42:29.788Z,15.10
2022-10-09T19:45:35.685Z,14.80
2022-10-09T19:48:41.566Z,14.50
2022-10-09T19:51:45.365Z,14.80
2022-10-09T19:54:49.797Z,15.00
2022-10-09T19:57:53.477Z,15.10
2022-10-09T20:00:56.339Z,15.00
2022-10-09T20:04:03.169Z,14.50
2022-10-09T20:07:09.078Z,14.10
2022-10-09T20:10:15.568Z,15.60
2022-10-09T20:13:18.397Z,16.70
2022-10-09T20:16:21.267Z,15.90
2022-10-09T20:19:25.846Z,16.40
2022-10-09T20:22:30.619Z,15.20
2022-10-09T20:25:33.916Z,16.60
2022-10-09T20:28:38.272Z,16.20
2022-10-09T20:31:42.117Z,15.60
2022-10-09T20:34:44.953Z,14.90
2022-10-09T20:37:47.768Z,15.60
2022-10-09T20:40:50.879Z,15.30
2022-10-09T20:43:55.047Z,14.40
2022-10-09T20:46:57.944Z,14.00
2022-10-09T20:50:01.063Z,14.60
2022-10-09T20:53:04.841Z,14.60
2022-10-09T20:56:11.490Z,15.30
2022-10-09T20:59:15.197Z,14.00
2022-10-09T21:02:20.605Z,14.60
2022-10-09T21:05:23.458Z,15.00
2022-10-09T21:08:26.324Z,14.30
2022-10-09T21:11:31.922Z,15.30
2022-10-09T21:14:37.559Z,15.70
2022-10-09T21:17:40.357Z,16.70
2022-10-09T21:20:45.616Z,18.70
2022-10-09T21:23:54.211Z,19.30
2022-10-09T21:26:57.749Z,18.40
2022-10-09T21:30:00.848Z,19.90
2022-10-09T21:33:06.434Z,19.50
2022-10-09T21:36:11.205Z,20.50
2022-10-09T21:39:14.081Z,20.50
2022-10-09T21:42:16.898Z,19.40
2022-10-09T21:45:19.724Z,20.60
2022-10-09T21:48:22.528Z,19.30
2022-10-09T21:51:27.168Z,20.60
2022-10-09T21:54:30.031Z,20.40
2022-10-09T21:57:32.916Z,18.50
2022-10-09T22:00:36.671Z,18.30
2022-10-09T22:03:40.899Z,17.40
2022-10-09T22:06:43.831Z,16.20
2022-10-09T22:09:46.664Z,16.60
2022-10-09T22:12:49.794Z,16.80
2022-10-09T22:15:52.881Z,16.30
2022-10-09T22:18:56.058Z,16.20
2022-10-09T22:21:58.957Z,17.40
2022-10-09T22:25:01.777Z,16.40
2022-10-09T22:28:06.175Z,17.40
2022-10-09T22:31:19.245Z,18.20
2022-10-09T22:34:23.118Z,18.50
2022-10-09T22:37:26.082Z,16.20
2022-10-09T22:40:29.022Z,17.10
2022-10-09T22:43:32.049Z,17.20
2022-10-09T22:46:41.214Z,18.20
2022-10-09T22:49:44.209Z,17.20
2022-10-09T22:52:47.063Z,17.80
2022-10-09T22:56:01.295Z,18.20
2022-10-09T22:59:05.311Z,18.20
2022-10-09T23:02:08.328Z,18.30
2022-10-09T23:05:11.287Z,18.30
2022-10-09T23:08:14.160Z,18.90
2022-10-09T23:11:18.565Z,18.60
2022-10-09T23:14:21.581Z,18.40
2022-10-09T23:17:24.434Z,17.00
2022-10-09T23:20:27.318Z,17.60
2022-10-09T23:23:31.405Z,16.70
2022-10-09T23:26:38.725Z,16.00
2022-10-09T23:29:41.526Z,16.40
2022-10-09T23:32:44.448Z,15.40
2022-10-09T23:35:47.324Z,15.60
2022-10-09T23:38:50.947Z,15.00
2022-10-09T23:41:53.739Z,15.70
2022-10-09T23:44:56.590Z,15.00
2022-10-09T23:47:59.398Z,13.90
2022-10-09T23:51:02.680Z,14.50
2022-10-09T23:54:05.583Z,14.30
2022-10-09T23:57:08.443Z,14.40
